Time;durP1;ratioP1;P1;durP2;ratioP2;P2;SDS_P1;SDS_P2;PMS_P1;PMS_P2;Temp;Humidity;BMP_temperature;BMP_pressure;BME280_temperature;BME280_humidity;BME280_pressure;Samples;Min_cycle;Max_cycle;Signal;HPM_P1;HPM_P2
2020/12/22 00:01:05;;;;;;;12.85;10.20;;;;;;;-2.04;79.25;101929.30;1848950;77;20914;-72
2020/12/22 00:03:34;;;;;;;14.47;9.70;;;;;;;-2.03;79.32;101932.72;1848926;77;21186;-72
2020/12/22 00:06:02;;;;;;;12.53;9.85;;;;;;;-2.04;79.35;101929.71;1848844;77;20944;-71
2020/12/22 00:08:31;;;;;;;12.95;10.20;;;;;;;-2.08;79.45;101936.42;1849000;77;21068;-72
2020/12/22 00:10:59;;;;;;;14.85;10.03;;;;;;;-2.09;79.57;101934.70;1848836;77;20989;-72
2020/12/22 00:13:28;;;;;;;13.10;10.90;;;;;;;-2.10;79.75;101933.38;1848950;77;21009;-72
2020/12/22 00:15:56;;;;;;;12.37;10.23;;;;;;;-2.09;79.83;101936.38;1848930;77;21240;-74
2020/12/22 00:18:24;;;;;;;19.45;12.05;;;;;;;-2.06;79.73;101934.77;1849009;77;21380;-74
2020/12/22 00:20:52;;;;;;;20.68;13.13;;;;;;;-2.05;79.75;101930.53;1849022;77;20937;-73
2020/12/22 00:23:21;;;;;;;18.87;12.20;;;;;;;-2.05;79.81;101930.53;1849159;77;21423;-74
2020/12/22 00:25:50;;;;;;;16.02;11.33;;;;;;;-2.04;79.92;101925.47;1849215;77;21432;-74
2020/12/22 00:28:19;;;;;;;21.97;12.88;;;;;;;-2.03;79.89;101928.89;1849106;77;21438;-73
2020/12/22 00:30:49;;;;;;;20.00;12.58;;;;;;;-2.02;79.90;101919.13;1849020;77;21051;-74
2020/12/22 00:33:17;;;;;;;18.25;11.57;;;;;;;-2.02;79.99;101925.52;1849070;77;21280;-73
2020/12/22 00:35:45;;;;;;;15.32;11.05;;;;;;;-2.02;79.85;101922.55;1849060;77;20934;-73
2020/12/22 00:38:15;;;;;;;12.93;10.23;;;;;;;-2.03;79.90;101918.27;1849027;77;20973;-74
2020/12/22 00:40:43;;;;;;;15.25;10.50;;;;;;;-2.03;79.91;101916.12;1849319;77;21381;-74
2020/12/22 00:43:12;;;;;;;11.48;9.70;;;;;;;-2.02;79.99;101914.02;1849591;77;21017;-73
2020/12/22 00:45:40;;;;;;;10.20;9.08;;;;;;;-2.01;79.87;101913.20;1849627;77;20965;-73
2020/12/22 00:48:10;;;;;;;13.58;10.18;;;;;;;-2.00;79.77;101913.66;1845080;77;21036;-72
2020/12/22 00:50:38;;;;;;;12.50;10.43;;;;;;;-2.02;79.67;101911.06;1849773;77;21428;-73
2020/12/22 00:53:07;;;;;;;12.25;9.88;;;;;;;-2.03;79.64;101913.58;1849646;77;21256;-73
2020/12/22 00:55:35;;;;;;;10.72;9.03;;;;;;;-2.04;79.78;101912.70;1849599;77;20898;-73
2020/12/22 00:58:04;;;;;;;12.65;10.72;;;;;;;-2.00;79.82;101911.52;1849614;77;20929;-73
2020/12/22 01:00:34;;;;;;;15.05;10.98;;;;;;;-2.00;79.81;101911.09;1849592;77;21044;-73
2020/12/22 01:03:03;;;;;;;13.88;10.58;;;;;;;-1.98;79.82;101908.55;1849674;77;20920;-73
2020/12/22 01:05:32;;;;;;;13.03;10.40;;;;;;;-1.99;79.67;101909.38;1849631;77;21181;-73
2020/12/22 01:08:00;;;;;;;22.95;12.45;;;;;;;-2.02;79.73;101903.41;1849582;77;21008;-73
2020/12/22 01:10:28;;;;;;;13.08;10.03;;;;;;;-2.02;79.76;101911.47;1849731;77;20926;-73
2020/12/22 01:12:57;;;;;;;16.93;11.95;;;;;;;-2.03;79.90;101910.61;1849681;77;20938;-73
2020/12/22 01:15:25;;;;;;;17.30;11.70;;;;;;;-2.01;80.01;101911.92;1849663;77;20915;-73
2020/12/22 01:17:53;;;;;;;14.85;10.53;;;;;;;-1.97;79.83;101910.28;1849621;77;21136;-73
2020/12/22 01:20:22;;;;;;;14.03;10.45;;;;;;;-1.96;79.89;101911.59;1849575;77;20934;-73
2020/12/22 01:22:50;;;;;;;13.72;10.35;;;;;;;-1.94;79.89;101910.36;1849657;77;20981;-73
2020/12/22 01:25:18;;;;;;;12.68;10.10;;;;;;;-1.93;79.89;101907.84;1849591;77;20946;-73
2020/12/22 01:27:46;;;;;;;12.33;9.25;;;;;;;-1.91;79.77;101907.89;1849785;77;21483;-73
2020/12/22 01:30:15;;;;;;;12.28;9.03;;;;;;;-1.91;79.64;101892.56;1849670;77;22201;-73
2020/12/22 01:32:45;;;;;;;12.85;9.95;;;;;;;-1.91;79.62;101897.67;1849687;77;20938;-74
2020/12/22 01:35:13;;;;;;;11.75;9.25;;;;;;;-1.92;79.61;101887.02;1849652;77;20886;-73
2020/12/22 01:37:41;;;;;;;12.03;9.48;;;;;;;-1.93;79.61;101889.11;1849554;77;20938;-73
2020/12/22 01:40:10;;;;;;;12.25;9.70;;;;;;;-1.96;79.60;101885.20;1849709;77;20941;-73
2020/12/22 01:42:44;;;;;;;11.65;9.68;;;;;;;-1.95;79.67;101885.66;1849737;77;21896;-73
2020/12/22 01:45:13;;;;;;;10.53;8.70;;;;;;;-1.95;79.70;101881.83;1849603;77;20942;-73
2020/12/22 01:47:49;;;;;;;11.63;9.75;;;;;;;-1.93;79.73;101884.01;1849634;77;20969;-73
2020/12/22 01:50:18;;;;;;;;;;;;;;;-1.91;79.71;101878.52;1852323;77;21483;-73
2020/12/22 01:52:46;;;;;;;14.58;9.70;;;;;;;-1.92;79.60;101880.21;1812640;79;20129;-73
2020/12/22 01:55:14;;;;;;;16.55;10.60;;;;;;;-1.92;79.59;101884.45;1790007;80;21143;-73
2020/12/22 01:57:43;;;;;;;13.58;10.90;;;;;;;-1.90;79.60;101891.73;1849568;77;20950;-73
2020/12/22 02:00:12;;;;;;;11.22;9.18;;;;;;;-1.89;79.54;101885.81;1849574;77;21116;-73
2020/12/22 02:02:43;;;;;;;12.73;9.40;;;;;;;-1.90;79.56;101890.05;1849555;77;20981;-73
2020/12/22 02:05:11;;;;;;;11.45;8.98;;;;;;;-1.89;79.55;101890.92;1849678;77;20922;-73
2020/12/22 02:07:40;;;;;;;11.70;10.05;;;;;;;-1.90;79.59;101884.95;1849581;77;21191;-73
2020/12/22 02:10:09;;;;;;;11.33;9.43;;;;;;;-1.89;79.67;101879.02;1849542;77;21001;-74
2020/12/22 02:12:41;;;;;;;13.53;10.28;;;;;;;-1.88;79.81;101873.08;1849622;77;21013;-73
2020/12/22 02:15:09;;;;;;;13.58;9.95;;;;;;;-1.86;79.79;101873.12;1849618;77;20989;-73
2020/12/22 02:17:37;;;;;;;12.50;9.98;;;;;;;-1.86;79.84;101868.88;1849622;77;20926;-73
2020/12/22 02:20:09;;;;;;;13.32;10.48;;;;;;;-1.89;79.60;101864.97;1849681;77;22132;-73
2020/12/22 02:22:38;;;;;;;12.70;10.50;;;;;;;-1.89;79.79;101862.83;1849702;77;21630;-73
2020/12/22 02:25:16;;;;;;;13.25;11.05;;;;;;;-1.90;79.94;101867.48;1849620;77;20966;-73
2020/12/22 02:27:45;;;;;;;14.38;11.50;;;;;;;-1.88;80.01;101865.84;1849639;77;21297;-73
2020/12/22 02:30:13;;;;;;;13.60;10.50;;;;;;;-1.87;79.93;101863.73;1849724;77;21471;-73
2020/12/22 02:32:41;;;;;;;11.80;10.58;;;;;;;-1.89;79.98;101863.70;1849604;77;21358;-74
2020/12/22 02:35:10;;;;;;;12.80;10.18;;;;;;;-1.88;80.05;101860.31;1849511;77;21001;-73
2020/12/22 02:37:38;;;;;;;11.73;10.03;;;;;;;-1.87;79.82;101853.52;1849600;77;21583;-73
2020/12/22 02:40:07;;;;;;;12.33;10.25;;;;;;;-1.87;79.75;101858.22;1849502;77;20981;-73
2020/12/22 02:42:35;;;;;;;12.75;10.58;;;;;;;-1.86;79.66;101859.94;1849023;77;20944;-73
2020/12/22 02:45:03;;;;;;;12.20;10.05;;;;;;;-1.85;79.64;101860.80;1849079;77;21611;-74
2020/12/22 02:47:32;;;;;;;13.65;11.25;;;;;;;-1.84;79.59;101855.73;1848913;77;21005;-73
2020/12/22 02:50:00;;;;;;;13.40;10.82;;;;;;;-1.86;79.58;101857.39;1849029;77;20945;-74
2020/12/22 02:52:29;;;;;;;13.13;10.78;;;;;;;-1.86;79.77;101857.80;1849040;77;21531;-74
2020/12/22 02:54:57;;;;;;;12.73;10.70;;;;;;;-1.86;79.49;101866.73;1848942;77;20970;-74
2020/12/22 02:57:26;;;;;;;14.80;11.43;;;;;;;-1.90;79.51;101859.83;1848963;77;21188;-74
2020/12/22 02:59:55;;;;;;;14.90;11.00;;;;;;;-1.90;79.58;101861.97;1848825;77;21476;-74
2020/12/22 03:02:23;;;;;;;15.38;12.18;;;;;;;-1.88;79.61;101867.98;1849034;77;21337;-74
2020/12/22 03:04:51;;;;;;;12.47;10.55;;;;;;;-1.87;79.65;101862.45;1848912;77;20989;-73
2020/12/22 03:07:19;;;;;;;14.60;11.30;;;;;;;-1.85;79.69;101861.67;1848947;77;20981;-74
2020/12/22 03:09:48;;;;;;;16.73;12.25;;;;;;;-1.85;79.46;101856.98;1848905;77;21348;-74
2020/12/22 03:12:16;;;;;;;26.97;15.63;;;;;;;-1.85;79.50;101857.84;1848912;77;20930;-73
2020/12/22 03:14:44;;;;;;;25.77;14.13;;;;;;;-1.85;79.51;101858.25;1848930;77;20941;-73
2020/12/22 03:17:12;;;;;;;13.15;9.18;;;;;;;-1.83;79.60;101862.56;1848922;77;20934;-73
2020/12/22 03:19:42;;;;;;;13.30;10.13;;;;;;;-1.82;79.12;101863.02;1845319;77;20930;-73
2020/12/22 03:22:11;;;;;;;28.45;15.15;;;;;;;-1.82;79.02;101855.77;1848952;77;21190;-73
2020/12/22 03:24:39;;;;;;;14.83;9.83;;;;;;;-1.80;78.97;101856.26;1848861;77;20988;-73
2020/12/22 03:27:07;;;;;;;19.30;12.07;;;;;;;-1.78;78.95;101854.61;1848943;77;20926;-73
2020/12/22 03:29:35;;;;;;;13.72;10.53;;;;;;;-1.77;78.85;101851.64;1848933;77;20918;-74
2020/12/22 03:32:03;;;;;;;16.95;12.23;;;;;;;-1.75;78.76;101852.53;1848968;77;21001;-74
2020/12/22 03:34:33;;;;;;;21.12;14.03;;;;;;;-1.74;78.76;101853.85;1848977;77;22318;-74
2020/12/22 03:37:01;;;;;;;11.85;9.45;;;;;;;-1.69;78.80;101857.79;1848869;77;20942;-74
2020/12/22 03:39:31;;;;;;;14.10;10.85;;;;;;;-1.65;78.54;101864.70;1848902;77;20976;-74
2020/12/22 03:42:00;;;;;;;19.35;14.10;;;;;;;-1.66;78.41;101859.14;1849074;77;21384;-73
2020/12/22 03:44:28;;;;;;;12.25;9.83;;;;;;;-1.65;78.49;101860.00;1849545;77;21012;-74
2020/12/22 03:46:56;;;;;;;8.98;8.08;;;;;;;-1.65;78.51;101854.89;1849484;77;21255;-75
2020/12/22 03:49:24;;;;;;;9.83;8.53;;;;;;;-1.66;78.48;101855.72;1849482;77;20945;-74
2020/12/22 03:51:52;;;;;;;11.22;9.75;;;;;;;-1.69;78.51;101854.83;1849582;77;20890;-74
2020/12/22 03:54:21;;;;;;;11.53;9.28;;;;;;;-1.70;78.67;101850.54;1849755;77;20926;-75
2020/12/22 03:56:49;;;;;;;12.80;10.48;;;;;;;-1.68;78.63;101851.86;1849704;77;21439;-74
2020/12/22 03:59:18;;;;;;;12.68;10.78;;;;;;;-1.71;78.61;101840.30;1849681;77;21479;-74
2020/12/22 04:01:49;;;;;;;11.12;9.80;;;;;;;-1.70;78.75;101847.13;1849668;77;20898;-75
2020/12/22 04:04:21;;;;;;;11.20;9.15;;;;;;;-1.71;78.73;101838.60;1849714;77;20924;-74
2020/12/22 04:06:49;;;;;;;19.23;14.38;;;;;;;-1.73;78.58;101840.67;1849668;77;21563;-74
2020/12/22 04:09:21;;;;;;;17.80;13.30;;;;;;;-1.75;78.88;101838.08;1849692;77;20973;-74
2020/12/22 04:11:49;;;;;;;11.22;9.43;;;;;;;-1.73;79.04;101843.22;1849694;77;21183;-75
2020/12/22 04:14:19;;;;;;;12.73;10.48;;;;;;;-1.71;78.85;101842.43;1849619;77;21025;-74
2020/12/22 04:16:48;;;;;;;13.60;11.08;;;;;;;-1.72;78.83;101834.32;1849670;77;21036;-73
2020/12/22 04:19:16;;;;;;;15.70;13.00;;;;;;;-1.71;78.87;101841.56;1849616;77;20934;-74
2020/12/22 04:21:46;;;;;;;15.10;12.18;;;;;;;-1.73;79.10;101835.56;1849691;77;20923;-74
2020/12/22 04:24:14;;;;;;;13.10;11.43;;;;;;;-1.73;79.33;101833.87;1849653;77;21259;-73
2020/12/22 04:26:43;;;;;;;13.00;11.25;;;;;;;-1.74;79.20;101827.04;1849631;77;20926;-74
2020/12/22 04:29:11;;;;;;;13.85;11.10;;;;;;;-1.73;79.17;101824.07;1849762;77;21373;-73
2020/12/22 04:31:39;;;;;;;11.90;9.53;;;;;;;-1.74;79.06;101830.87;1849643;77;21575;-73
2020/12/22 04:34:08;;;;;;;15.30;10.13;;;;;;;-1.74;78.97;101828.73;1849775;77;21471;-74
2020/12/22 04:36:36;;;;;;;11.38;9.28;;;;;;;-1.74;78.88;101823.63;1849683;77;22089;-74
2020/12/22 04:39:04;;;;;;;11.48;9.63;;;;;;;-1.75;78.84;101821.48;1849550;77;21052;-74
2020/12/22 04:41:33;;;;;;;10.43;9.33;;;;;;;-1.75;78.67;101819.34;1849624;77;20926;-74
2020/12/22 04:44:01;;;;;;;10.38;8.78;;;;;;;-1.76;78.47;101817.62;1849062;77;20981;-75
2020/12/22 04:46:29;;;;;;;11.88;8.83;;;;;;;-1.79;78.62;101819.69;1849096;77;20970;-74
2020/12/22 04:48:58;;;;;;;9.05;8.05;;;;;;;-1.75;79.87;101818.92;1849053;77;21359;-75
2020/12/22 04:51:26;;;;;;;9.80;8.28;;;;;;;-1.66;80.38;101815.72;1848952;77;20946;-75
2020/12/22 04:53:56;;;;;;;11.38;9.00;;;;;;;-1.56;80.26;101817.63;1845544;77;20941;-75
2020/12/22 04:56:26;;;;;;;10.93;8.23;;;;;;;-1.48;79.13;101808.85;1849027;77;20945;-75
2020/12/22 04:58:54;;;;;;;13.18;9.18;;;;;;;-1.47;78.22;101815.27;1849048;77;20922;-75
2020/12/22 05:01:23;;;;;;;11.57;9.70;;;;;;;-1.51;78.07;101804.54;1849016;77;21268;-75
2020/12/22 05:03:51;;;;;;;13.58;10.30;;;;;;;-1.51;78.89;101806.23;1848991;77;21528;-74
2020/12/22 05:06:20;;;;;;;12.13;9.28;;;;;;;-1.46;79.48;101803.36;1849043;77;21480;-75
2020/12/22 05:08:49;;;;;;;12.68;9.63;;;;;;;-1.38;79.95;101803.97;1849003;77;21001;-74
2020/12/22 05:11:18;;;;;;;13.75;10.13;;;;;;;-1.27;80.03;101811.01;1849045;77;21339;-75
2020/12/22 05:13:47;;;;;;;13.78;9.78;;;;;;;-1.16;79.88;101804.39;1848992;77;21250;-75
2020/12/22 05:16:16;;;;;;;11.75;9.58;;;;;;;-1.07;79.58;101808.00;1848936;77;20938;-74
2020/12/22 05:18:44;;;;;;;16.90;12.45;;;;;;;-0.98;79.35;101798.38;1849000;77;20985;-74
2020/12/22 05:21:14;;;;;;;15.80;12.30;;;;;;;-0.89;79.38;101796.00;1826176;77;20879;-75
2020/12/22 05:23:43;;;;;;;18.95;15.25;;;;;;;-0.82;78.96;101799.13;1849021;77;20926;-75
2020/12/22 05:26:11;;;;;;;19.90;13.30;;;;;;;-0.78;78.46;101802.56;1848998;77;21348;-74
2020/12/22 05:28:39;;;;;;;20.72;16.93;;;;;;;-0.81;77.97;101803.81;1848951;77;20977;-74
2020/12/22 05:31:16;;;;;;;18.30;15.15;;;;;;;-0.89;77.69;101802.39;1826114;77;21665;-74
2020/12/22 05:33:45;;;;;;;23.47;18.32;;;;;;;-1.02;77.83;101802.98;1848993;77;20902;-74
2020/12/22 05:36:14;;;;;;;30.97;23.73;;;;;;;-1.10;78.48;101808.35;1849141;77;20929;-74
2020/12/22 05:38:43;;;;;;;20.40;15.72;;;;;;;-1.16;78.76;101803.98;1849103;77;22098;-74
2020/12/22 05:41:11;;;;;;;21.87;16.02;;;;;;;-1.22;78.77;101809.41;1848918;77;21001;-74
2020/12/22 05:43:41;;;;;;;29.82;22.17;;;;;;;-1.27;78.76;101807.17;1849437;77;21001;-73
2020/12/22 05:46:10;;;;;;;19.55;14.87;;;;;;;-1.33;78.92;101809.19;1849589;77;20989;-74
2020/12/22 05:48:39;;;;;;;20.90;15.78;;;;;;;-1.37;79.09;101806.98;1849494;77;21594;-73
2020/12/22 05:51:08;;;;;;;18.02;14.75;;;;;;;-1.41;79.25;101802.63;1849603;77;21186;-72
2020/12/22 05:53:42;;;;;;;20.12;15.35;;;;;;;-1.43;79.36;101811.95;1849434;77;21048;-71
2020/12/22 05:56:17;;;;;;;17.77;14.63;;;;;;;-1.43;79.68;101810.67;1849544;77;20934;-73
2020/12/22 05:58:46;;;;;;;19.90;14.63;;;;;;;-1.40;80.43;101811.16;1848495;77;21609;-73
2020/12/22 06:01:14;;;;;;;17.42;13.58;;;;;;;-1.35;80.79;101806.59;1837739;76;21020;-73
2020/12/22 06:03:42;;;;;;;18.17;14.10;;;;;;;-1.29;80.87;101806.28;1818150;77;22129;-73
2020/12/22 06:06:12;;;;;;;20.90;14.93;;;;;;;-1.23;80.60;101812.80;1846789;77;21048;-73
2020/12/22 06:08:40;;;;;;;30.52;18.62;;;;;;;-1.22;80.16;101809.00;1842689;76;20986;-72
2020/12/22 06:11:09;;;;;;;38.95;24.02;;;;;;;-1.23;80.27;101808.55;1792215;76;21041;-71
2020/12/22 06:13:37;;;;;;;32.20;20.05;;;;;;;-1.25;80.21;101810.21;1813148;77;21033;-71
2020/12/22 06:16:21;;;;;;;38.55;21.90;;;;;;;-1.28;80.25;101809.28;1790908;79;21657;-70
2020/12/22 06:18:51;;;;;;;30.35;19.65;;;;;;;-1.32;80.28;101808.77;1779772;77;21074;-74
2020/12/22 06:21:20;;;;;;;30.48;19.60;;;;;;;-1.38;80.69;101803.97;1799736;79;21553;-74
2020/12/22 06:23:55;;;;;;;28.17;18.23;;;;;;;-1.40;81.04;101802.22;1812361;79;21032;-74
2020/12/22 06:26:24;;;;;;;32.67;19.70;;;;;;;-1.40;81.25;101803.49;1799239;78;22040;-73
2020/12/22 06:28:53;;;;;;;30.57;19.67;;;;;;;-1.43;81.35;101801.73;1800331;79;21208;-73
2020/12/22 06:31:23;;;;;;;25.55;18.62;;;;;;;-1.44;81.57;101801.29;1793578;79;20991;-72
2020/12/22 06:33:52;;;;;;;28.17;19.35;;;;;;;-1.46;81.72;101802.95;1809843;79;21047;-72
2020/12/22 06:36:20;;;;;;;29.30;20.80;;;;;;;-1.49;81.92;101800.73;1785380;78;20989;-75
2020/12/22 06:39:01;;;;;;;33.30;22.25;;;;;;;-1.50;82.19;101793.91;1838837;77;20978;-69
2020/12/22 06:41:41;;;;;;;52.67;30.57;;;;;;;-1.49;82.33;101802.87;1816159;77;21359;-70
2020/12/22 06:44:27;;;;;;;46.63;27.17;;;;;;;-1.49;82.40;101793.08;1828035;76;21053;-70
2020/12/22 06:46:58;;;;;;;35.90;23.07;;;;;;;-1.50;82.68;101797.73;1815961;77;20945;-69
2020/12/22 06:49:49;;;;;;;50.40;29.48;;;;;;;-1.48;82.78;101795.66;1772773;79;20895;-71
2020/12/22 06:52:37;;;;;;;41.40;25.00;;;;;;;-1.46;82.81;101797.84;1804314;79;20981;-72
2020/12/22 06:55:10;;;;;;;45.73;27.27;;;;;;;-1.44;82.88;101788.52;1815569;79;21127;-73
2020/12/22 06:58:06;;;;;;;49.55;30.05;;;;;;;-1.44;82.73;101778.30;1829939;77;21021;-71
2020/12/22 07:00:37;;;;;;;37.53;23.15;;;;;;;-1.43;82.83;101782.98;1757564;79;21539;-73
2020/12/22 07:03:15;;;;;;;29.92;18.52;;;;;;;-1.43;82.92;101771.08;1790529;80;21040;-73
2020/12/22 07:05:48;;;;;;;34.40;22.98;;;;;;;-1.41;82.76;101773.25;1789752;80;20947;-72
2020/12/22 07:08:17;;;;;;;31.60;21.48;;;;;;;-1.41;82.74;101774.53;1744377;81;21365;-72
2020/12/22 07:10:47;;;;;;;31.07;20.05;;;;;;;-1.39;82.89;101772.87;1813021;78;21037;-72
2020/12/22 07:13:17;;;;;;;28.02;19.42;;;;;;;-1.37;82.84;101780.15;1836228;78;21631;-71
2020/12/22 07:15:49;;;;;;;31.52;18.80;;;;;;;-1.37;82.75;101772.90;1815834;78;21058;-73
2020/12/22 07:18:30;;;;;;;30.80;20.08;;;;;;;-1.37;82.74;101763.95;1824886;77;20977;-72
2020/12/22 07:20:59;;;;;;;30.35;20.60;;;;;;;-1.38;82.70;101766.06;1822821;78;21337;-72
2020/12/22 07:23:27;;;;;;;33.63;21.00;;;;;;;-1.37;82.75;101767.78;1821525;78;21095;-74
2020/12/22 07:25:58;;;;;;;27.98;18.23;;;;;;;-1.36;82.75;101767.82;1821907;77;21338;-73
2020/12/22 07:28:32;;;;;;;27.27;18.70;;;;;;;-1.33;82.56;101761.05;1808649;78;20997;-75
2020/12/22 07:31:04;;;;;;;33.95;23.18;;;;;;;-1.40;82.64;101763.48;1820926;78;21010;-75
2020/12/22 07:33:35;;;;;;;36.03;24.45;;;;;;;-1.41;82.73;101765.59;1830212;78;21185;-75
2020/12/22 07:36:04;;;;;;;29.35;21.00;;;;;;;-1.41;82.67;101761.75;1833882;78;21021;-73
2020/12/22 07:38:50;;;;;;;33.20;20.65;;;;;;;-1.40;82.70;101767.31;1809750;77;32909;-72
2020/12/22 07:41:28;;;;;;;25.85;18.95;;;;;;;-1.38;82.78;101766.92;1806059;78;21072;-73
2020/12/22 07:44:11;;;;;;;35.35;21.57;;;;;;;-1.34;82.81;101767.85;1806061;79;21056;-72
2020/12/22 07:46:41;;;;;;;43.00;23.05;;;;;;;-1.30;82.73;101768.78;1823742;78;22301;-75
2020/12/22 07:49:12;;;;;;;34.75;22.67;;;;;;;-1.27;82.51;101765.87;1818375;78;20997;-78
2020/12/22 07:51:46;;;;;;;32.58;21.48;;;;;;;-1.25;82.29;101768.45;1806018;78;21480;-75
2020/12/22 07:54:19;;;;;;;37.17;23.12;;;;;;;-1.27;82.22;101762.45;1743704;81;21030;-78
2020/12/22 07:56:51;;;;;;;42.43;27.30;;;;;;;-1.25;82.34;101756.95;1756651;81;21040;-77
2020/12/22 07:59:22;;;;;;;41.53;25.32;;;;;;;-1.24;82.46;101746.77;1786836;79;22294;-79
2020/12/22 08:02:09;;;;;;;39.38;24.77;;;;;;;-1.20;82.34;101748.97;1786845;80;20947;-70
2020/12/22 08:04:40;;;;;;;29.57;20.17;;;;;;;-1.16;82.22;101746.47;1787942;80;21001;-71
2020/12/22 08:07:10;;;;;;;36.00;22.65;;;;;;;-1.13;82.18;101750.78;1857222;76;21426;-70
2020/12/22 08:09:49;;;;;;;34.92;22.13;;;;;;;-1.10;82.10;101741.47;1824227;78;20929;-70
2020/12/22 08:12:33;;;;;;;37.13;21.20;;;;;;;-1.05;81.93;101747.95;1814983;78;21163;-71
2020/12/22 08:15:17;;;;;;;32.93;21.73;;;;;;;-1.04;81.50;101743.28;1782284;80;21054;-71
2020/12/22 08:17:53;;;;;;;32.28;20.30;;;;;;;-1.07;81.36;101741.95;1755368;81;21013;-73
2020/12/22 08:20:24;;;;;;;35.78;22.25;;;;;;;-1.08;81.46;101738.95;1787624;80;20947;-73
2020/12/22 08:22:58;;;;;;;45.12;25.68;;;;;;;-1.04;81.37;101737.76;1755210;81;20938;-71
2020/12/22 08:25:38;;;;;;;44.10;23.60;;;;;;;-0.99;81.28;101734.42;1788217;80;21198;-75
2020/12/22 08:28:26;;;;;;;31.42;21.12;;;;;;;-0.94;81.28;101733.68;1750019;81;21043;-73
2020/12/22 08:31:15;;;;;;;38.92;23.55;;;;;;;-0.88;81.04;101723.98;1756993;81;20939;-74
2020/12/22 08:33:54;;;;;;;33.53;21.73;;;;;;;-0.84;81.01;101725.76;1764272;80;21667;-73
2020/12/22 08:36:28;;;;;;;31.65;19.15;;;;;;;-0.79;80.84;101715.16;1782494;79;21080;-71
2020/12/22 08:39:32;;;;;;;30.88;21.00;;;;;;;-0.76;80.52;101708.41;1759751;79;21134;-72
2020/12/22 08:42:08;;;;;;;32.05;20.97;;;;;;;-0.74;80.25;101705.88;1741879;81;20992;-72
2020/12/22 08:44:49;;;;;;;29.40;19.85;;;;;;;-0.73;80.49;101703.34;1832692;77;21032;-72
2020/12/22 08:47:56;;;;;;;26.90;18.32;;;;;;;-0.72;80.12;101699.95;1828058;78;21017;-74
2020/12/22 08:50:50;;;;;;;30.02;19.75;;;;;;;-0.72;80.12;101701.23;1821523;77;21017;-73
2020/12/22 08:53:26;;;;;;;34.35;21.52;;;;;;;-0.73;79.78;101689.69;1816537;78;21383;-72
2020/12/22 08:56:06;;;;;;;27.15;18.52;;;;;;;-0.74;79.69;101687.55;1831989;78;20966;-72
2020/12/22 08:58:41;;;;;;;30.30;19.52;;;;;;;-0.73;79.75;101680.33;1741786;81;20983;-72
2020/12/22 09:01:23;;;;;;;30.92;20.12;;;;;;;-0.72;80.19;101684.61;1782874;79;21049;-71
2020/12/22 09:03:54;;;;;;;23.77;16.80;;;;;;;-0.73;79.75;101675.20;1727486;82;20966;-74
2020/12/22 09:06:39;;;;;;;30.95;20.48;;;;;;;-0.74;79.63;101669.65;1758439;80;21156;-74
2020/12/22 09:09:23;;;;;;;30.75;19.48;;;;;;;-0.74;79.76;101669.65;1790224;80;21056;-77
2020/12/22 09:12:08;;;;;;;29.52;21.55;;;;;;;-0.70;79.66;101662.47;1818319;77;21081;-72
2020/12/22 09:14:41;;;;;;;33.00;21.75;;;;;;;-0.68;79.59;101662.50;1814580;78;21012;-70
2020/12/22 09:17:13;;;;;;;32.53;20.48;;;;;;;-0.67;79.50;101653.56;1834914;78;21053;-70
2020/12/22 09:19:51;;;;;;;25.95;18.20;;;;;;;-0.64;79.53;101658.29;1806255;78;21096;-70
2020/12/22 09:22:30;;;;;;;24.37;18.20;;;;;;;-0.60;79.45;101652.39;1807402;77;21073;-71
2020/12/22 09:25:07;;;;;;;26.02;18.80;;;;;;;-0.57;79.08;101649.45;1824814;78;21037;-71
2020/12/22 09:27:41;;;;;;;22.82;17.25;;;;;;;-0.55;79.04;101649.06;1814359;78;21037;-72
2020/12/22 09:30:12;;;;;;;24.00;17.55;;;;;;;-0.55;78.64;101640.53;1804483;78;21037;-73
2020/12/22 09:32:43;;;;;;;29.50;18.20;;;;;;;-0.57;78.81;101643.06;1805036;79;21954;-73
2020/12/22 09:35:12;;;;;;;28.23;18.20;;;;;;;-0.58;78.94;101643.04;1804905;79;20942;-70
2020/12/22 09:37:43;;;;;;;44.05;25.70;;;;;;;-0.57;78.82;101647.31;1815304;78;20961;-68
2020/12/22 09:40:11;;;;;;;24.85;16.70;;;;;;;-0.57;79.00;101644.34;1821898;78;20961;-74
2020/12/22 09:42:40;;;;;;;33.63;20.72;;;;;;;-0.54;78.75;101643.11;1822325;78;20988;-70
2020/12/22 09:45:09;;;;;;;30.82;19.02;;;;;;;-0.52;78.74;101643.13;1837625;78;21176;-68
2020/12/22 09:47:38;;;;;;;30.88;18.62;;;;;;;-0.52;78.55;101644.00;1837571;78;21641;-71
2020/12/22 09:50:10;;;;;;;25.40;16.17;;;;;;;-0.52;78.65;101643.13;1833752;78;21049;-72
2020/12/22 09:52:41;;;;;;;26.17;18.07;;;;;;;-0.51;78.66;101642.30;1827738;77;21017;-68
2020/12/22 09:55:09;;;;;;;25.48;16.97;;;;;;;-0.50;78.66;101645.30;1828205;78;21033;-68
2020/12/22 09:57:38;;;;;;;23.40;16.52;;;;;;;-0.53;78.58;101637.16;1831946;78;21656;-70
2020/12/22 10:00:08;;;;;;;23.38;16.57;;;;;;;-0.53;78.67;101632.45;1837363;78;21072;-71
2020/12/22 10:02:38;;;;;;;24.23;17.50;;;;;;;-0.52;78.72;101629.06;1837631;77;20998;-71
2020/12/22 10:05:06;;;;;;;26.30;16.62;;;;;;;-0.51;78.51;101625.25;1837871;77;21013;-71
2020/12/22 10:07:34;;;;;;;27.52;18.55;;;;;;;-0.55;78.44;101614.95;1825309;78;20986;-67
2020/12/22 10:10:03;;;;;;;28.55;17.82;;;;;;;-0.57;78.54;101610.22;1805606;79;21364;-69
2020/12/22 10:12:31;;;;;;;25.05;17.67;;;;;;;-0.57;78.75;101606.39;1805866;79;21587;-74
2020/12/22 10:15:03;;;;;;;30.10;17.70;;;;;;;-0.55;78.78;101609.83;1812951;77;21001;-70
2020/12/22 10:17:31;;;;;;;27.27;17.92;;;;;;;-0.52;78.91;101606.03;1826774;78;21162;-72
2020/12/22 10:20:00;;;;;;;31.12;20.48;;;;;;;-0.52;78.88;101604.34;1823047;78;21474;-72
2020/12/22 10:22:31;;;;;;;30.20;18.55;;;;;;;-0.49;78.91;101603.52;1810838;77;21165;-72
2020/12/22 10:25:00;;;;;;;24.57;16.50;;;;;;;-0.44;78.83;101594.22;1834049;78;21013;-68
2020/12/22 10:27:28;;;;;;;20.88;15.58;;;;;;;-0.42;78.68;101596.37;1819907;78;21037;-71
2020/12/22 10:29:56;;;;;;;21.75;15.25;;;;;;;-0.42;78.40;101600.22;1818752;78;21031;-72
2020/12/22 10:32:25;;;;;;;26.40;16.32;;;;;;;-0.44;78.21;101595.49;1806555;77;21000;-70
2020/12/22 10:34:53;;;;;;;27.35;17.62;;;;;;;-0.46;78.24;101590.77;1804959;79;22296;-76
2020/12/22 10:37:22;;;;;;;21.68;16.20;;;;;;;-0.47;78.34;101584.80;1760582;80;21130;-73
2020/12/22 10:39:51;;;;;;;25.20;17.80;;;;;;;-0.45;78.20;101584.40;1788226;80;20999;-73
2020/12/22 10:42:20;;;;;;;22.00;15.30;;;;;;;-0.43;78.26;101577.60;1786078;78;21010;-72
2020/12/22 10:44:48;;;;;;;23.67;16.27;;;;;;;-0.40;78.26;101579.34;1758569;78;21443;-77
2020/12/22 10:47:18;;;;;;;22.22;15.45;;;;;;;-0.38;77.93;101574.66;1774459;80;20986;-74
2020/12/22 10:49:48;;;;;;;23.32;15.20;;;;;;;-0.36;77.98;101572.98;1783044;80;21079;-69
2020/12/22 10:52:16;;;;;;;24.23;16.57;;;;;;;-0.35;77.76;101573.84;1755574;79;21587;-69
2020/12/22 10:54:46;;;;;;;25.05;16.87;;;;;;;-0.37;77.56;101569.12;1775611;80;20979;-69
2020/12/22 10:57:15;;;;;;;19.90;14.50;;;;;;;-0.38;77.81;101563.56;1782476;80;21023;-75
2020/12/22 10:59:43;;;;;;;20.92;15.08;;;;;;;-0.37;77.86;101566.14;1776604;80;21193;-70
2020/12/22 11:02:11;;;;;;;18.82;14.13;;;;;;;-0.31;77.93;101558.11;1752577;81;21064;-70
2020/12/22 11:04:40;;;;;;;22.05;15.03;;;;;;;-0.26;78.10;101552.20;1774428;80;21018;-70
2020/12/22 11:07:22;;;;;;;22.00;14.55;;;;;;;-0.22;78.03;101542.86;1769853;79;21061;-70
2020/12/22 11:09:45;;;;;;;22.30;16.05;;;;;;;-0.18;77.53;101547.19;1774777;79;21087;-70
2020/12/22 11:12:14;;;;;;;19.12;14.53;;;;;;;-0.20;77.55;101530.52;1794326;79;22163;-70
2020/12/22 11:14:42;;;;;;;21.23;14.15;;;;;;;-0.18;77.53;101533.10;1793910;79;20941;-69
2020/12/22 11:17:10;;;;;;;22.45;14.43;;;;;;;-0.16;77.59;101529.72;1795311;79;21103;-71
2020/12/22 11:19:38;;;;;;;22.73;15.72;;;;;;;-0.14;77.40;101525.91;1794987;79;21056;-70
2020/12/22 11:22:07;;;;;;;31.57;20.17;;;;;;;-0.14;77.38;101522.92;1795182;79;21025;-70
2020/12/22 11:24:35;;;;;;;29.30;19.25;;;;;;;-0.14;77.48;101530.59;1795089;79;21359;-70
2020/12/22 11:27:03;;;;;;;28.65;18.52;;;;;;;-0.14;77.51;101528.04;1795196;79;21610;-70
2020/12/22 11:29:31;;;;;;;27.22;18.32;;;;;;;-0.15;77.53;101525.04;1795314;79;21662;-70